sensor_id;sensor_type;location;lat;lon;timestamp;P1;durP1;ratioP1;P2;durP2;ratioP2
2408;SDS011;8463;48.094;7.970;2022-08-18T00:02:25;3.77;;;3.47;;
2408;SDS011;8463;48.094;7.970;2022-08-18T00:04:53;4.20;;;3.80;;
2408;SDS011;8463;48.094;7.970;2022-08-18T00:07:21;3.80;;;3.50;;
2408;SDS011;8463;48.094;7.970;2022-08-18T00:09:51;4.00;;;3.60;;
2408;SDS011;8463;48.094;7.970;2022-08-18T00:12:22;4.23;;;3.83;;
2408;SDS011;8463;48.094;7.970;2022-08-18T00:14:51;3.67;;;3.37;;
2408;SDS011;8463;48.094;7.970;2022-08-18T00:17:18;3.80;;;3.50;;
2408;SDS011;8463;48.094;7.970;2022-08-18T00:19:44;6.07;;;3.43;;
2408;SDS011;8463;48.094;7.970;2022-08-18T00:22:12;3.90;;;3.60;;
2408;SDS011;8463;48.094;7.970;2022-08-18T00:24:45;4.17;;;3.77;;
2408;SDS011;8463;48.094;7.970;2022-08-18T00:27:16;5.77;;;3.70;;
2408;SDS011;8463;48.094;7.970;2022-08-18T00:29:45;4.17;;;3.53;;
2408;SDS011;8463;48.094;7.970;2022-08-18T00:32:14;3.30;;;2.90;;
2408;SDS011;8463;48.094;7.970;2022-08-18T00:34:42;3.87;;;3.30;;
2408;SDS011;8463;48.094;7.970;2022-08-18T00:37:08;3.07;;;2.77;;
2408;SDS011;8463;48.094;7.970;2022-08-18T00:39:33;3.90;;;3.50;;
2408;SDS011;8463;48.094;7.970;2022-08-18T00:42:10;3.73;;;3.43;;
2408;SDS011;8463;48.094;7.970;2022-08-18T00:44:48;3.67;;;3.37;;
2408;SDS011;8463;48.094;7.970;2022-08-18T00:47:14;4.13;;;3.77;;
2408;SDS011;8463;48.094;7.970;2022-08-18T00:49:40;4.37;;;3.73;;
2408;SDS011;8463;48.094;7.970;2022-08-18T00:52:08;6.27;;;4.23;;
2408;SDS011;8463;48.094;7.970;2022-08-18T00:54:35;4.77;;;4.37;;
2408;SDS011;8463;48.094;7.970;2022-08-18T00:57:04;4.90;;;4.50;;
2408;SDS011;8463;48.094;7.970;2022-08-18T01:01:57;6.93;;;4.83;;
2408;SDS011;8463;48.094;7.970;2022-08-18T01:04:33;6.13;;;4.33;;
2408;SDS011;8463;48.094;7.970;2022-08-18T01:07:48;4.60;;;3.50;;
2408;SDS011;8463;48.094;7.970;2022-08-18T01:09:53;4.20;;;3.80;;
2408;SDS011;8463;48.094;7.970;2022-08-18T01:12:23;3.93;;;3.60;;
2408;SDS011;8463;48.094;7.970;2022-08-18T01:14:50;4.60;;;4.20;;
2408;SDS011;8463;48.094;7.970;2022-08-18T01:17:17;3.70;;;3.40;;
2408;SDS011;8463;48.094;7.970;2022-08-18T01:20:01;4.40;;;4.00;;
2408;SDS011;8463;48.094;7.970;2022-08-18T01:25:20;3.93;;;3.63;;
2408;SDS011;8463;48.094;7.970;2022-08-18T01:28:05;5.00;;;4.50;;
2408;SDS011;8463;48.094;7.970;2022-08-18T01:30:31;3.97;;;3.67;;
2408;SDS011;8463;48.094;7.970;2022-08-18T01:33:08;4.23;;;3.63;;
2408;SDS011;8463;48.094;7.970;2022-08-18T01:35:36;3.33;;;3.13;;
2408;SDS011;8463;48.094;7.970;2022-08-18T01:38:05;4.20;;;3.80;;
2408;SDS011;8463;48.094;7.970;2022-08-18T01:40:30;4.57;;;4.20;;
2408;SDS011;8463;48.094;7.970;2022-08-18T01:42:56;5.27;;;3.70;;
2408;SDS011;8463;48.094;7.970;2022-08-18T01:45:22;4.17;;;3.77;;
2408;SDS011;8463;48.094;7.970;2022-08-18T01:47:48;4.67;;;4.23;;
2408;SDS011;8463;48.094;7.970;2022-08-18T01:50:15;3.63;;;3.33;;
2408;SDS011;8463;48.094;7.970;2022-08-18T01:52:41;4.57;;;4.20;;
2408;SDS011;8463;48.094;7.970;2022-08-18T01:55:07;6.60;;;3.83;;
2408;SDS011;8463;48.094;7.970;2022-08-18T01:57:38;3.23;;;3.03;;
2408;SDS011;8463;48.094;7.970;2022-08-18T02:00:09;4.43;;;4.07;;
2408;SDS011;8463;48.094;7.970;2022-08-18T02:02:37;7.80;;;4.47;;
2408;SDS011;8463;48.094;7.970;2022-08-18T02:05:08;3.97;;;3.67;;
2408;SDS011;8463;48.094;7.970;2022-08-18T02:07:37;4.70;;;3.90;;
2408;SDS011;8463;48.094;7.970;2022-08-18T02:10:04;4.30;;;3.93;;
2408;SDS011;8463;48.094;7.970;2022-08-18T02:12:37;4.00;;;3.67;;
2408;SDS011;8463;48.094;7.970;2022-08-18T02:15:04;4.17;;;3.80;;
2408;SDS011;8463;48.094;7.970;2022-08-18T02:17:35;3.87;;;3.50;;
2408;SDS011;8463;48.094;7.970;2022-08-18T02:20:05;4.63;;;4.23;;
2408;SDS011;8463;48.094;7.970;2022-08-18T02:22:33;4.47;;;4.07;;
2408;SDS011;8463;48.094;7.970;2022-08-18T02:24:58;3.67;;;3.37;;
2408;SDS011;8463;48.094;7.970;2022-08-18T02:27:25;3.70;;;3.40;;
2408;SDS011;8463;48.094;7.970;2022-08-18T02:29:51;3.90;;;3.60;;
2408;SDS011;8463;48.094;7.970;2022-08-18T02:32:17;3.90;;;3.60;;
2408;SDS011;8463;48.094;7.970;2022-08-18T02:34:43;3.53;;;3.23;;
2408;SDS011;8463;48.094;7.970;2022-08-18T02:37:09;4.53;;;4.13;;
2408;SDS011;8463;48.094;7.970;2022-08-18T02:39:35;4.77;;;3.70;;
2408;SDS011;8463;48.094;7.970;2022-08-18T02:42:03;3.60;;;3.30;;
2408;SDS011;8463;48.094;7.970;2022-08-18T02:44:29;4.13;;;3.83;;
2408;SDS011;8463;48.094;7.970;2022-08-18T02:46:56;4.00;;;3.70;;
2408;SDS011;8463;48.094;7.970;2022-08-18T02:49:22;4.50;;;3.27;;
2408;SDS011;8463;48.094;7.970;2022-08-18T02:51:49;4.00;;;3.70;;
2408;SDS011;8463;48.094;7.970;2022-08-18T02:54:18;4.07;;;3.77;;
2408;SDS011;8463;48.094;7.970;2022-08-18T02:56:46;4.80;;;3.67;;
2408;SDS011;8463;48.094;7.970;2022-08-18T02:59:16;5.00;;;4.00;;
2408;SDS011;8463;48.094;7.970;2022-08-18T03:01:45;4.60;;;4.20;;
2408;SDS011;8463;48.094;7.970;2022-08-18T03:04:13;5.67;;;3.83;;
2408;SDS011;8463;48.094;7.970;2022-08-18T03:06:41;4.13;;;3.73;;
2408;SDS011;8463;48.094;7.970;2022-08-18T03:09:08;5.50;;;3.80;;
2408;SDS011;8463;48.094;7.970;2022-08-18T03:11:35;4.77;;;4.33;;
2408;SDS011;8463;48.094;7.970;2022-08-18T03:14:01;4.20;;;3.90;;
2408;SDS011;8463;48.094;7.970;2022-08-18T03:16:29;3.80;;;3.50;;
2408;SDS011;8463;48.094;7.970;2022-08-18T03:18:57;5.43;;;4.77;;
2408;SDS011;8463;48.094;7.970;2022-08-18T03:21:24;4.40;;;4.00;;
2408;SDS011;8463;48.094;7.970;2022-08-18T03:23:52;5.37;;;4.47;;
2408;SDS011;8463;48.094;7.970;2022-08-18T03:26:19;3.87;;;3.47;;
2408;SDS011;8463;48.094;7.970;2022-08-18T03:28:47;5.13;;;4.73;;
2408;SDS011;8463;48.094;7.970;2022-08-18T03:31:15;4.50;;;4.10;;
2408;SDS011;8463;48.094;7.970;2022-08-18T03:33:43;5.10;;;4.47;;
2408;SDS011;8463;48.094;7.970;2022-08-18T03:36:13;4.50;;;4.10;;
2408;SDS011;8463;48.094;7.970;2022-08-18T03:38:44;5.73;;;4.40;;
2408;SDS011;8463;48.094;7.970;2022-08-18T03:41:12;4.20;;;3.80;;
2408;SDS011;8463;48.094;7.970;2022-08-18T03:43:40;4.50;;;4.10;;
2408;SDS011;8463;48.094;7.970;2022-08-18T03:46:07;4.40;;;4.00;;
2408;SDS011;8463;48.094;7.970;2022-08-18T03:48:36;5.00;;;4.40;;
2408;SDS011;8463;48.094;7.970;2022-08-18T03:51:05;4.97;;;4.40;;
2408;SDS011;8463;48.094;7.970;2022-08-18T03:53:33;4.37;;;3.97;;
2408;SDS011;8463;48.094;7.970;2022-08-18T03:56:00;3.83;;;3.30;;
2408;SDS011;8463;48.094;7.970;2022-08-18T03:58:26;4.23;;;3.83;;
2408;SDS011;8463;48.094;7.970;2022-08-18T04:00:52;4.07;;;3.67;;
2408;SDS011;8463;48.094;7.970;2022-08-18T04:03:18;4.03;;;3.73;;
2408;SDS011;8463;48.094;7.970;2022-08-18T04:05:44;4.23;;;3.83;;
2408;SDS011;8463;48.094;7.970;2022-08-18T04:08:09;4.20;;;3.90;;
2408;SDS011;8463;48.094;7.970;2022-08-18T04:10:35;3.60;;;3.30;;
2408;SDS011;8463;48.094;7.970;2022-08-18T04:13:00;4.77;;;3.70;;
2408;SDS011;8463;48.094;7.970;2022-08-18T04:15:29;5.10;;;4.60;;
2408;SDS011;8463;48.094;7.970;2022-08-18T04:17:59;4.20;;;3.80;;
2408;SDS011;8463;48.094;7.970;2022-08-18T04:20:28;4.17;;;3.77;;
2408;SDS011;8463;48.094;7.970;2022-08-18T04:22:57;5.10;;;3.87;;
2408;SDS011;8463;48.094;7.970;2022-08-18T04:25:23;3.40;;;3.20;;
2408;SDS011;8463;48.094;7.970;2022-08-18T04:27:50;4.20;;;3.80;;
2408;SDS011;8463;48.094;7.970;2022-08-18T04:30:19;3.50;;;3.20;;
2408;SDS011;8463;48.094;7.970;2022-08-18T04:32:45;4.13;;;3.83;;
2408;SDS011;8463;48.094;7.970;2022-08-18T04:35:10;4.70;;;4.30;;
2408;SDS011;8463;48.094;7.970;2022-08-18T04:37:36;3.93;;;3.53;;
2408;SDS011;8463;48.094;7.970;2022-08-18T04:40:03;4.40;;;4.00;;
2408;SDS011;8463;48.094;7.970;2022-08-18T04:42:29;4.80;;;4.40;;
2408;SDS011;8463;48.094;7.970;2022-08-18T04:44:55;3.20;;;3.00;;
2408;SDS011;8463;48.094;7.970;2022-08-18T04:47:22;3.80;;;3.50;;
2408;SDS011;8463;48.094;7.970;2022-08-18T04:49:47;4.10;;;3.73;;
2408;SDS011;8463;48.094;7.970;2022-08-18T04:52:14;4.07;;;3.70;;
2408;SDS011;8463;48.094;7.970;2022-08-18T04:54:59;4.07;;;3.77;;
2408;SDS011;8463;48.094;7.970;2022-08-18T04:57:25;4.10;;;3.50;;
2408;SDS011;8463;48.094;7.970;2022-08-18T04:59:52;4.13;;;3.73;;
2408;SDS011;8463;48.094;7.970;2022-08-18T05:02:18;4.77;;;3.60;;
2408;SDS011;8463;48.094;7.970;2022-08-18T05:04:45;3.83;;;3.53;;
2408;SDS011;8463;48.094;7.970;2022-08-18T05:07:12;3.60;;;3.30;;
2408;SDS011;8463;48.094;7.970;2022-08-18T05:09:40;4.30;;;3.87;;
2408;SDS011;8463;48.094;7.970;2022-08-18T05:12:07;6.40;;;4.60;;
2408;SDS011;8463;48.094;7.970;2022-08-18T05:14:36;3.50;;;3.20;;
2408;SDS011;8463;48.094;7.970;2022-08-18T05:17:02;4.40;;;4.10;;
2408;SDS011;8463;48.094;7.970;2022-08-18T05:19:28;4.20;;;3.80;;
2408;SDS011;8463;48.094;7.970;2022-08-18T05:21:55;3.83;;;3.53;;
2408;SDS011;8463;48.094;7.970;2022-08-18T05:24:24;3.80;;;3.50;;
2408;SDS011;8463;48.094;7.970;2022-08-18T05:26:52;3.90;;;3.60;;
2408;SDS011;8463;48.094;7.970;2022-08-18T05:29:19;5.97;;;4.17;;
2408;SDS011;8463;48.094;7.970;2022-08-18T05:31:46;5.03;;;4.53;;
2408;SDS011;8463;48.094;7.970;2022-08-18T05:34:13;5.73;;;4.20;;
2408;SDS011;8463;48.094;7.970;2022-08-18T05:39:18;4.70;;;4.30;;
2408;SDS011;8463;48.094;7.970;2022-08-18T05:41:54;4.40;;;4.00;;
2408;SDS011;8463;48.094;7.970;2022-08-18T05:44:53;5.00;;;4.60;;
2408;SDS011;8463;48.094;7.970;2022-08-18T05:47:30;5.90;;;5.40;;
2408;SDS011;8463;48.094;7.970;2022-08-18T05:49:57;5.20;;;4.80;;
2408;SDS011;8463;48.094;7.970;2022-08-18T05:52:33;4.70;;;4.20;;
2408;SDS011;8463;48.094;7.970;2022-08-18T05:55:05;5.07;;;4.67;;
2408;SDS011;8463;48.094;7.970;2022-08-18T05:58:02;5.47;;;4.97;;
2408;SDS011;8463;48.094;7.970;2022-08-18T06:00:39;5.17;;;4.40;;
2408;SDS011;8463;48.094;7.970;2022-08-18T06:03:14;5.23;;;4.70;;
2408;SDS011;8463;48.094;7.970;2022-08-18T06:06:07;5.60;;;5.10;;
2408;SDS011;8463;48.094;7.970;2022-08-18T06:08:42;4.63;;;4.23;;
2408;SDS011;8463;48.094;7.970;2022-08-18T06:11:11;3.80;;;3.57;;
2408;SDS011;8463;48.094;7.970;2022-08-18T06:13:38;4.40;;;4.10;;
2408;SDS011;8463;48.094;7.970;2022-08-18T06:18:43;4.13;;;3.73;;
2408;SDS011;8463;48.094;7.970;2022-08-18T06:27:33;6.07;;;4.90;;
2408;SDS011;8463;48.094;7.970;2022-08-18T06:30:01;4.50;;;4.10;;
2408;SDS011;8463;48.094;7.970;2022-08-18T06:38:38;5.20;;;4.70;;
2408;SDS011;8463;48.094;7.970;2022-08-18T06:41:18;5.63;;;4.73;;
2408;SDS011;8463;48.094;7.970;2022-08-18T06:43:59;6.97;;;5.50;;
2408;SDS011;8463;48.094;7.970;2022-08-18T06:46:35;4.70;;;4.30;;
2408;SDS011;8463;48.094;7.970;2022-08-18T06:49:11;5.50;;;5.10;;
2408;SDS011;8463;48.094;7.970;2022-08-18T06:51:42;5.10;;;4.63;;
2408;SDS011;8463;48.094;7.970;2022-08-18T06:54:29;5.17;;;4.43;;
2408;SDS011;8463;48.094;7.970;2022-08-18T06:56:54;5.10;;;4.60;;
2408;SDS011;8463;48.094;7.970;2022-08-18T07:01:51;4.73;;;4.33;;
2408;SDS011;8463;48.094;7.970;2022-08-18T07:07:28;5.20;;;4.70;;
2408;SDS011;8463;48.094;7.970;2022-08-18T07:12:37;6.70;;;4.50;;
2408;SDS011;8463;48.094;7.970;2022-08-18T07:15:03;5.07;;;4.67;;
2408;SDS011;8463;48.094;7.970;2022-08-18T07:17:35;4.70;;;4.20;;
2408;SDS011;8463;48.094;7.970;2022-08-18T07:20:07;4.90;;;3.97;;
2408;SDS011;8463;48.094;7.970;2022-08-18T07:25:52;4.90;;;4.50;;
2408;SDS011;8463;48.094;7.970;2022-08-18T07:28:25;5.23;;;4.83;;
2408;SDS011;8463;48.094;7.970;2022-08-18T07:33:45;5.00;;;4.60;;
2408;SDS011;8463;48.094;7.970;2022-08-18T07:36:22;6.30;;;5.80;;
2408;SDS011;8463;48.094;7.970;2022-08-18T07:39:04;5.20;;;4.70;;
2408;SDS011;8463;48.094;7.970;2022-08-18T07:41:48;5.13;;;4.70;;
2408;SDS011;8463;48.094;7.970;2022-08-18T07:44:36;5.03;;;4.53;;
2408;SDS011;8463;48.094;7.970;2022-08-18T07:49:55;5.37;;;4.83;;
2408;SDS011;8463;48.094;7.970;2022-08-18T07:52:40;4.87;;;4.47;;
2408;SDS011;8463;48.094;7.970;2022-08-18T07:55:27;4.93;;;4.53;;
2408;SDS011;8463;48.094;7.970;2022-08-18T07:58:05;5.67;;;4.63;;
2408;SDS011;8463;48.094;7.970;2022-08-18T08:01:03;4.60;;;4.20;;
2408;SDS011;8463;48.094;7.970;2022-08-18T08:03:41;4.17;;;3.87;;
2408;SDS011;8463;48.094;7.970;2022-08-18T08:09:19;4.83;;;4.43;;
2408;SDS011;8463;48.094;7.970;2022-08-18T08:12:01;4.83;;;4.33;;
2408;SDS011;8463;48.094;7.970;2022-08-18T08:14:45;7.63;;;4.97;;
2408;SDS011;8463;48.094;7.970;2022-08-18T08:20:00;4.67;;;4.37;;
2408;SDS011;8463;48.094;7.970;2022-08-18T08:22:30;4.80;;;4.40;;
2408;SDS011;8463;48.094;7.970;2022-08-18T08:30:17;4.37;;;4.00;;
2408;SDS011;8463;48.094;7.970;2022-08-18T08:32:56;5.20;;;4.70;;
2408;SDS011;8463;48.094;7.970;2022-08-18T08:35:38;5.20;;;4.80;;
2408;SDS011;8463;48.094;7.970;2022-08-18T08:38:45;6.63;;;4.93;;
2408;SDS011;8463;48.094;7.970;2022-08-18T08:41:13;5.23;;;4.83;;
2408;SDS011;8463;48.094;7.970;2022-08-18T08:44:01;6.30;;;5.10;;
2408;SDS011;8463;48.094;7.970;2022-08-18T08:52:21;6.33;;;5.77;;
2408;SDS011;8463;48.094;7.970;2022-08-18T08:54:59;6.00;;;5.40;;
2408;SDS011;8463;48.094;7.970;2022-08-18T08:57:38;5.60;;;5.20;;
2408;SDS011;8463;48.094;7.970;2022-08-18T09:00:09;5.87;;;5.30;;
2408;SDS011;8463;48.094;7.970;2022-08-18T09:05:45;4.67;;;4.27;;
2408;SDS011;8463;48.094;7.970;2022-08-18T09:24:53;6.23;;;5.70;;
2408;SDS011;8463;48.094;7.970;2022-08-18T09:30:22;5.50;;;5.10;;
2408;SDS011;8463;48.094;7.970;2022-08-18T09:33:29;6.00;;;5.50;;
2408;SDS011;8463;48.094;7.970;2022-08-18T09:39:36;5.83;;;5.33;;
2408;SDS011;8463;48.094;7.970;2022-08-18T09:42:33;6.17;;;5.67;;
2408;SDS011;8463;48.094;7.970;2022-08-18T09:45:34;5.93;;;5.43;;
2408;SDS011;8463;48.094;7.970;2022-08-18T09:52:53;5.13;;;4.70;;
2408;SDS011;8463;48.094;7.970;2022-08-18T09:58:11;4.47;;;4.17;;
2408;SDS011;8463;48.094;7.970;2022-08-18T10:00:39;5.63;;;5.23;;
2408;SDS011;8463;48.094;7.970;2022-08-18T10:03:09;4.90;;;4.50;;
2408;SDS011;8463;48.094;7.970;2022-08-18T10:05:54;4.70;;;4.33;;
2408;SDS011;8463;48.094;7.970;2022-08-18T10:08:32;4.77;;;4.37;;
2408;SDS011;8463;48.094;7.970;2022-08-18T10:11:20;5.33;;;4.93;;
2408;SDS011;8463;48.094;7.970;2022-08-18T10:14:04;5.20;;;4.80;;
2408;SDS011;8463;48.094;7.970;2022-08-18T10:19:26;5.27;;;4.80;;
2408;SDS011;8463;48.094;7.970;2022-08-18T10:22:04;6.10;;;5.50;;
2408;SDS011;8463;48.094;7.970;2022-08-18T10:24:35;5.37;;;4.97;;
2408;SDS011;8463;48.094;7.970;2022-08-18T10:27:09;7.20;;;4.90;;
2408;SDS011;8463;48.094;7.970;2022-08-18T10:32:55;5.27;;;4.87;;
2408;SDS011;8463;48.094;7.970;2022-08-18T10:35:03;5.40;;;4.90;;
2408;SDS011;8463;48.094;7.970;2022-08-18T10:48:14;6.17;;;5.30;;
2408;SDS011;8463;48.094;7.970;2022-08-18T10:50:51;5.33;;;4.93;;
2408;SDS011;8463;48.094;7.970;2022-08-18T10:53:19;5.53;;;5.03;;
2408;SDS011;8463;48.094;7.970;2022-08-18T11:03:42;5.30;;;4.80;;
2408;SDS011;8463;48.094;7.970;2022-08-18T11:06:28;7.33;;;6.70;;
2408;SDS011;8463;48.094;7.970;2022-08-18T11:09:17;6.53;;;5.93;;
2408;SDS011;8463;48.094;7.970;2022-08-18T11:11:50;6.53;;;5.93;;
2408;SDS011;8463;48.094;7.970;2022-08-18T11:20:06;6.20;;;5.70;;
2408;SDS011;8463;48.094;7.970;2022-08-18T11:22:35;6.53;;;5.80;;
2408;SDS011;8463;48.094;7.970;2022-08-18T11:25:02;8.50;;;6.20;;
2408;SDS011;8463;48.094;7.970;2022-08-18T11:27:44;5.90;;;5.40;;
2408;SDS011;8463;48.094;7.970;2022-08-18T11:30:11;5.80;;;5.40;;
2408;SDS011;8463;48.094;7.970;2022-08-18T11:32:37;7.40;;;6.73;;
2408;SDS011;8463;48.094;7.970;2022-08-18T11:38:17;6.90;;;6.30;;
2408;SDS011;8463;48.094;7.970;2022-08-18T11:40:44;6.63;;;6.03;;
2408;SDS011;8463;48.094;7.970;2022-08-18T11:43:23;7.00;;;6.30;;
2408;SDS011;8463;48.094;7.970;2022-08-18T11:45:53;6.00;;;5.50;;
2408;SDS011;8463;48.094;7.970;2022-08-18T11:51:07;6.20;;;5.70;;
2408;SDS011;8463;48.094;7.970;2022-08-18T11:53:49;6.47;;;5.67;;
2408;SDS011;8463;48.094;7.970;2022-08-18T11:59:06;7.20;;;6.53;;
2408;SDS011;8463;48.094;7.970;2022-08-18T12:01:59;7.10;;;6.50;;
2408;SDS011;8463;48.094;7.970;2022-08-18T12:04:47;8.20;;;7.50;;
2408;SDS011;8463;48.094;7.970;2022-08-18T12:07:24;6.90;;;6.30;;
2408;SDS011;8463;48.094;7.970;2022-08-18T12:12:42;6.80;;;6.10;;
2408;SDS011;8463;48.094;7.970;2022-08-18T12:17:44;6.70;;;6.20;;
2408;SDS011;8463;48.094;7.970;2022-08-18T12:20:14;7.30;;;6.70;;
2408;SDS011;8463;48.094;7.970;2022-08-18T12:22:45;8.93;;;7.83;;
2408;SDS011;8463;48.094;7.970;2022-08-18T12:25:15;7.40;;;6.80;;
2408;SDS011;8463;48.094;7.970;2022-08-18T12:27:42;6.43;;;5.93;;
2408;SDS011;8463;48.094;7.970;2022-08-18T12:30:09;7.97;;;7.07;;
2408;SDS011;8463;48.094;7.970;2022-08-18T12:32:36;7.53;;;6.83;;
2408;SDS011;8463;48.094;7.970;2022-08-18T12:35:03;8.00;;;7.30;;
2408;SDS011;8463;48.094;7.970;2022-08-18T12:37:30;7.30;;;6.70;;
2408;SDS011;8463;48.094;7.970;2022-08-18T12:39:57;8.53;;;7.20;;
2408;SDS011;8463;48.094;7.970;2022-08-18T12:42:23;8.13;;;6.40;;
2408;SDS011;8463;48.094;7.970;2022-08-18T12:44:50;8.53;;;7.20;;
2408;SDS011;8463;48.094;7.970;2022-08-18T12:47:21;7.43;;;6.70;;
2408;SDS011;8463;48.094;7.970;2022-08-18T12:49:49;7.47;;;6.77;;
2408;SDS011;8463;48.094;7.970;2022-08-18T12:52:16;7.70;;;7.00;;
2408;SDS011;8463;48.094;7.970;2022-08-18T12:54:43;7.00;;;6.40;;
2408;SDS011;8463;48.094;7.970;2022-08-18T12:57:18;8.50;;;6.70;;
2408;SDS011;8463;48.094;7.970;2022-08-18T12:59:48;7.90;;;7.20;;
2408;SDS011;8463;48.094;7.970;2022-08-18T13:02:14;9.23;;;7.57;;
2408;SDS011;8463;48.094;7.970;2022-08-18T13:04:41;8.60;;;7.80;;
2408;SDS011;8463;48.094;7.970;2022-08-18T13:07:07;8.37;;;7.67;;
2408;SDS011;8463;48.094;7.970;2022-08-18T13:09:35;8.13;;;7.33;;
2408;SDS011;8463;48.094;7.970;2022-08-18T13:12:01;8.47;;;7.67;;
2408;SDS011;8463;48.094;7.970;2022-08-18T13:14:27;7.53;;;6.83;;
2408;SDS011;8463;48.094;7.970;2022-08-18T13:16:53;8.00;;;7.30;;
2408;SDS011;8463;48.094;7.970;2022-08-18T13:19:19;9.20;;;8.40;;
2408;SDS011;8463;48.094;7.970;2022-08-18T13:21:45;8.43;;;7.83;;
2408;SDS011;8463;48.094;7.970;2022-08-18T13:24:11;8.37;;;7.57;;
2408;SDS011;8463;48.094;7.970;2022-08-18T13:26:40;8.23;;;7.53;;
2408;SDS011;8463;48.094;7.970;2022-08-18T13:29:08;8.70;;;7.90;;
2408;SDS011;8463;48.094;7.970;2022-08-18T13:31:34;8.43;;;7.63;;
2408;SDS011;8463;48.094;7.970;2022-08-18T13:34:00;9.20;;;8.30;;
2408;SDS011;8463;48.094;7.970;2022-08-18T13:36:27;8.87;;;8.07;;
2408;SDS011;8463;48.094;7.970;2022-08-18T13:39:09;8.27;;;7.57;;
2408;SDS011;8463;48.094;7.970;2022-08-18T13:41:46;7.80;;;7.20;;
2408;SDS011;8463;48.094;7.970;2022-08-18T13:44:13;8.40;;;7.70;;
2408;SDS011;8463;48.094;7.970;2022-08-18T13:46:42;7.97;;;7.37;;
2408;SDS011;8463;48.094;7.970;2022-08-18T13:49:11;9.33;;;8.43;;
2408;SDS011;8463;48.094;7.970;2022-08-18T13:51:42;9.57;;;8.30;;
2408;SDS011;8463;48.094;7.970;2022-08-18T13:54:09;7.97;;;7.27;;
2408;SDS011;8463;48.094;7.970;2022-08-18T13:56:41;9.50;;;8.40;;
2408;SDS011;8463;48.094;7.970;2022-08-18T13:59:08;10.13;;;9.07;;
2408;SDS011;8463;48.094;7.970;2022-08-18T14:01:34;9.67;;;8.87;;
2408;SDS011;8463;48.094;7.970;2022-08-18T14:04:00;8.97;;;8.17;;
2408;SDS011;8463;48.094;7.970;2022-08-18T14:06:26;9.33;;;8.53;;
2408;SDS011;8463;48.094;7.970;2022-08-18T14:08:52;10.70;;;9.60;;
2408;SDS011;8463;48.094;7.970;2022-08-18T14:11:19;10.57;;;9.57;;
2408;SDS011;8463;48.094;7.970;2022-08-18T14:13:50;9.17;;;8.30;;
2408;SDS011;8463;48.094;7.970;2022-08-18T14:16:16;8.40;;;7.70;;
2408;SDS011;8463;48.094;7.970;2022-08-18T14:18:42;8.80;;;7.97;;
2408;SDS011;8463;48.094;7.970;2022-08-18T14:21:08;10.37;;;8.93;;
2408;SDS011;8463;48.094;7.970;2022-08-18T14:23:52;13.27;;;8.60;;
2408;SDS011;8463;48.094;7.970;2022-08-18T14:26:36;10.53;;;9.63;;
2408;SDS011;8463;48.094;7.970;2022-08-18T14:29:14;11.73;;;10.67;;
2408;SDS011;8463;48.094;7.970;2022-08-18T14:31:40;10.40;;;9.40;;
2408;SDS011;8463;48.094;7.970;2022-08-18T14:34:06;10.80;;;9.80;;
2408;SDS011;8463;48.094;7.970;2022-08-18T14:36:32;10.50;;;9.50;;
2408;SDS011;8463;48.094;7.970;2022-08-18T14:38:58;13.20;;;11.93;;
2408;SDS011;8463;48.094;7.970;2022-08-18T14:41:24;10.67;;;9.67;;
2408;SDS011;8463;48.094;7.970;2022-08-18T14:43:50;9.93;;;8.93;;
2408;SDS011;8463;48.094;7.970;2022-08-18T14:46:16;11.67;;;10.67;;
2408;SDS011;8463;48.094;7.970;2022-08-18T14:48:42;10.03;;;9.03;;
2408;SDS011;8463;48.094;7.970;2022-08-18T14:51:08;10.17;;;9.17;;
2408;SDS011;8463;48.094;7.970;2022-08-18T14:53:34;11.60;;;10.50;;
2408;SDS011;8463;48.094;7.970;2022-08-18T14:56:01;10.77;;;9.30;;
2408;SDS011;8463;48.094;7.970;2022-08-18T14:58:29;11.00;;;10.00;;
2408;SDS011;8463;48.094;7.970;2022-08-18T15:00:57;11.27;;;10.23;;
2408;SDS011;8463;48.094;7.970;2022-08-18T15:03:26;11.00;;;9.90;;
2408;SDS011;8463;48.094;7.970;2022-08-18T15:05:53;11.40;;;10.30;;
2408;SDS011;8463;48.094;7.970;2022-08-18T15:08:19;12.20;;;11.00;;
2408;SDS011;8463;48.094;7.970;2022-08-18T15:10:45;12.37;;;11.20;;
2408;SDS011;8463;48.094;7.970;2022-08-18T15:13:11;11.43;;;10.30;;
2408;SDS011;8463;48.094;7.970;2022-08-18T15:15:37;11.97;;;10.53;;
2408;SDS011;8463;48.094;7.970;2022-08-18T15:18:03;13.43;;;11.60;;
2408;SDS011;8463;48.094;7.970;2022-08-18T15:20:29;13.20;;;11.90;;
2408;SDS011;8463;48.094;7.970;2022-08-18T15:22:58;13.77;;;12.57;;
2408;SDS011;8463;48.094;7.970;2022-08-18T15:25:44;13.30;;;12.10;;
2408;SDS011;8463;48.094;7.970;2022-08-18T15:28:12;14.53;;;12.90;;
2408;SDS011;8463;48.094;7.970;2022-08-18T15:30:43;14.13;;;12.73;;
2408;SDS011;8463;48.094;7.970;2022-08-18T15:33:09;14.57;;;13.13;;
2408;SDS011;8463;48.094;7.970;2022-08-18T15:35:35;15.70;;;12.67;;
2408;SDS011;8463;48.094;7.970;2022-08-18T15:38:03;14.07;;;12.63;;
2408;SDS011;8463;48.094;7.970;2022-08-18T15:40:29;13.37;;;11.90;;
2408;SDS011;8463;48.094;7.970;2022-08-18T15:42:57;13.57;;;12.23;;
2408;SDS011;8463;48.094;7.970;2022-08-18T15:45:30;15.37;;;13.87;;
2408;SDS011;8463;48.094;7.970;2022-08-18T15:47:59;14.13;;;12.70;;
2408;SDS011;8463;48.094;7.970;2022-08-18T15:50:26;15.23;;;13.73;;
2408;SDS011;8463;48.094;7.970;2022-08-18T15:52:54;14.20;;;12.80;;
2408;SDS011;8463;48.094;7.970;2022-08-18T15:55:23;14.23;;;12.83;;
2408;SDS011;8463;48.094;7.970;2022-08-18T15:57:52;13.23;;;11.93;;
2408;SDS011;8463;48.094;7.970;2022-08-18T16:00:19;13.67;;;12.27;;
2408;SDS011;8463;48.094;7.970;2022-08-18T16:02:50;13.10;;;11.77;;
2408;SDS011;8463;48.094;7.970;2022-08-18T16:05:20;12.57;;;11.47;;
2408;SDS011;8463;48.094;7.970;2022-08-18T16:07:47;15.00;;;13.40;;
2408;SDS011;8463;48.094;7.970;2022-08-18T16:10:14;12.50;;;11.23;;
2408;SDS011;8463;48.094;7.970;2022-08-18T16:12:41;13.73;;;12.30;;
2408;SDS011;8463;48.094;7.970;2022-08-18T16:15:07;13.97;;;12.10;;
2408;SDS011;8463;48.094;7.970;2022-08-18T16:17:33;11.83;;;10.63;;
2408;SDS011;8463;48.094;7.970;2022-08-18T16:19:59;11.97;;;10.80;;
2408;SDS011;8463;48.094;7.970;2022-08-18T16:22:26;11.67;;;10.57;;
2408;SDS011;8463;48.094;7.970;2022-08-18T16:24:52;13.50;;;12.30;;
2408;SDS011;8463;48.094;7.970;2022-08-18T16:27:18;14.00;;;12.70;;
2408;SDS011;8463;48.094;7.970;2022-08-18T16:29:44;12.50;;;11.20;;
2408;SDS011;8463;48.094;7.970;2022-08-18T16:32:12;13.50;;;12.20;;
2408;SDS011;8463;48.094;7.970;2022-08-18T16:34:37;14.43;;;12.93;;
2408;SDS011;8463;48.094;7.970;2022-08-18T16:37:05;13.93;;;12.63;;
2408;SDS011;8463;48.094;7.970;2022-08-18T16:39:33;15.27;;;13.07;;
2408;SDS011;8463;48.094;7.970;2022-08-18T16:41:58;14.90;;;13.60;;
2408;SDS011;8463;48.094;7.970;2022-08-18T16:44:24;19.10;;;10.83;;
2408;SDS011;8463;48.094;7.970;2022-08-18T16:46:53;15.17;;;12.70;;
2408;SDS011;8463;48.094;7.970;2022-08-18T16:49:19;15.00;;;13.00;;
2408;SDS011;8463;48.094;7.970;2022-08-18T16:51:45;14.27;;;12.87;;
2408;SDS011;8463;48.094;7.970;2022-08-18T16:54:11;15.13;;;12.60;;
2408;SDS011;8463;48.094;7.970;2022-08-18T16:56:38;12.67;;;11.37;;
2408;SDS011;8463;48.094;7.970;2022-08-18T16:59:04;11.80;;;10.73;;
2408;SDS011;8463;48.094;7.970;2022-08-18T17:01:48;13.17;;;11.77;;
2408;SDS011;8463;48.094;7.970;2022-08-18T17:04:32;13.20;;;11.50;;
2408;SDS011;8463;48.094;7.970;2022-08-18T17:06:58;12.07;;;10.87;;
2408;SDS011;8463;48.094;7.970;2022-08-18T17:09:25;13.47;;;11.67;;
2408;SDS011;8463;48.094;7.970;2022-08-18T17:11:52;12.47;;;11.27;;
2408;SDS011;8463;48.094;7.970;2022-08-18T17:14:21;11.53;;;10.33;;
2408;SDS011;8463;48.094;7.970;2022-08-18T17:16:49;15.20;;;13.10;;
2408;SDS011;8463;48.094;7.970;2022-08-18T17:19:17;13.17;;;12.07;;
2408;SDS011;8463;48.094;7.970;2022-08-18T17:21:43;13.40;;;12.10;;
2408;SDS011;8463;48.094;7.970;2022-08-18T17:24:09;13.97;;;11.73;;
2408;SDS011;8463;48.094;7.970;2022-08-18T17:26:42;15.80;;;13.60;;
2408;SDS011;8463;48.094;7.970;2022-08-18T17:29:18;15.67;;;14.07;;
2408;SDS011;8463;48.094;7.970;2022-08-18T17:31:55;14.43;;;12.93;;
2408;SDS011;8463;48.094;7.970;2022-08-18T17:34:26;13.43;;;11.27;;
2408;SDS011;8463;48.094;7.970;2022-08-18T17:36:59;11.40;;;10.30;;
2408;SDS011;8463;48.094;7.970;2022-08-18T17:39:27;11.93;;;9.60;;
2408;SDS011;8463;48.094;7.970;2022-08-18T17:41:58;11.43;;;10.30;;
2408;SDS011;8463;48.094;7.970;2022-08-18T17:44:44;10.80;;;9.50;;
2408;SDS011;8463;48.094;7.970;2022-08-18T17:47:14;10.77;;;9.20;;